createdAt,value
2023-04-01T00:01:09.326Z,1.10
2023-04-01T00:06:14.622Z,0.75
2023-04-01T00:11:17.916Z,1.02
2023-04-01T00:16:22.907Z,0.82
2023-04-01T00:21:25.054Z,0.95
2023-04-01T00:26:27.583Z,1.25
2023-04-01T00:31:29.910Z,1.35
2023-04-01T00:36:31.721Z,1.02
2023-04-01T00:41:33.516Z,2.08
2023-04-01T00:46:36.618Z,0.82
2023-04-01T00:51:40.038Z,0.90
2023-04-01T00:56:50.749Z,0.82
2023-04-01T01:07:13.149Z,1.10
2023-04-01T01:12:20.374Z,0.70
2023-04-01T01:17:41.781Z,0.90
2023-04-01T01:23:20.973Z,0.77
2023-04-01T01:28:52.450Z,1.05
2023-04-01T01:34:32.280Z,1.23
2023-04-01T01:39:36.435Z,1.02
2023-04-01T01:44:39.808Z,1.40
2023-04-01T01:49:43.460Z,1.27
2023-04-01T01:55:03.461Z,1.08
2023-04-01T02:00:14.593Z,1.60
2023-04-01T02:05:20.819Z,0.77
2023-04-01T02:10:26.042Z,0.98
2023-04-01T02:15:32.593Z,1.00
2023-04-01T02:20:36.109Z,1.30
2023-04-01T02:25:40.474Z,1.70
2023-04-01T02:30:44.046Z,1.50
2023-04-01T02:35:45.964Z,1.58
2023-04-01T02:40:50.667Z,1.40
2023-04-01T02:45:52.722Z,1.80
2023-04-01T02:50:54.523Z,1.55
2023-04-01T02:55:56.911Z,2.28
2023-04-01T03:00:58.699Z,1.58
2023-04-01T03:06:07.326Z,2.13
2023-04-01T03:11:10.882Z,2.30
2023-04-01T03:16:12.814Z,1.90
2023-04-01T03:21:22.460Z,2.58
2023-04-01T03:26:24.338Z,2.53
2023-04-01T03:31:26.376Z,1.73
2023-04-01T03:36:28.302Z,3.30
2023-04-01T03:41:31.667Z,2.50
2023-04-01T03:46:33.577Z,2.45
2023-04-01T03:51:35.457Z,2.65
2023-04-01T03:56:37.835Z,2.65
2023-04-01T04:01:39.642Z,3.28
2023-04-01T04:06:41.750Z,3.58
2023-04-01T04:11:43.554Z,3.70
2023-04-01T04:16:45.584Z,4.53
2023-04-01T04:21:47.391Z,4.05
2023-04-01T04:26:49.298Z,5.00
2023-04-01T04:31:51.272Z,4.40
2023-04-01T04:36:53.170Z,4.68
2023-04-01T04:41:54.928Z,5.03
2023-04-01T04:46:58.366Z,4.63
2023-04-01T04:52:00.608Z,3.90
2023-04-01T04:57:02.480Z,3.38
2023-04-01T05:02:04.317Z,3.17
2023-04-01T05:07:06.115Z,3.33
2023-04-01T05:12:08.067Z,2.65
2023-04-01T05:17:11.669Z,3.08
2023-04-01T05:22:13.558Z,4.55
2023-04-01T05:27:15.534Z,3.30
2023-04-01T05:32:18.949Z,3.72
2023-04-01T05:37:20.885Z,3.03
2023-04-01T05:42:22.752Z,3.25
2023-04-01T05:47:24.633Z,1.88
2023-04-01T05:52:26.490Z,1.77
2023-04-01T05:57:28.320Z,1.90
2023-04-01T06:02:30.242Z,2.05
2023-04-01T06:07:32.054Z,3.97
2023-04-01T06:12:45.823Z,3.95
2023-04-01T06:18:12.479Z,3.90
2023-04-01T06:23:25.271Z,3.40
2023-04-01T06:28:33.208Z,4.15
2023-04-01T06:33:55.317Z,4.80
2023-04-01T06:38:59.902Z,3.80
2023-04-01T06:44:33.917Z,3.72
2023-04-01T06:49:47.814Z,3.85
2023-04-01T06:55:29.781Z,3.80
2023-04-01T07:00:37.304Z,4.85
2023-04-01T07:05:40.289Z,4.00
2023-04-01T07:10:51.638Z,4.05
2023-04-01T07:16:13.729Z,4.25
2023-04-01T07:21:32.766Z,4.28
2023-04-01T07:26:35.683Z,3.13
2023-04-01T07:32:08.220Z,3.45
2023-04-01T07:37:47.218Z,3.20
2023-04-01T07:43:13.068Z,2.17
2023-04-01T07:48:36.544Z,1.85
2023-04-01T07:53:49.697Z,1.20
2023-04-01T07:59:14.981Z,1.05
2023-04-01T08:04:35.729Z,1.25
2023-04-01T08:14:41.831Z,1.60
2023-04-01T08:19:52.854Z,1.00
2023-04-01T08:24:58.424Z,0.80
2023-04-01T08:30:23.641Z,0.98
2023-04-01T08:35:33.327Z,1.05
2023-04-01T08:46:09.034Z,0.80
2023-04-01T08:52:02.264Z,1.10
2023-04-01T08:57:39.171Z,1.50
2023-04-01T09:03:10.315Z,1.30
2023-04-01T09:08:55.811Z,1.13
2023-04-01T09:14:18.658Z,1.40
2023-04-01T09:19:38.302Z,1.40
2023-04-01T09:25:13.516Z,1.80
2023-04-01T09:30:40.625Z,1.00
2023-04-01T09:36:09.196Z,1.30
2023-04-01T09:41:28.715Z,1.27
2023-04-01T09:47:25.496Z,1.55
2023-04-01T09:52:44.203Z,1.15
2023-04-01T09:58:17.600Z,1.10
2023-04-01T10:03:50.674Z,1.27
2023-04-01T10:09:23.500Z,1.50
2023-04-01T10:14:53.365Z,1.95
2023-04-01T10:20:19.451Z,2.47
2023-04-01T10:25:47.668Z,2.50
2023-04-01T10:31:20.145Z,7.43
2023-04-01T10:36:47.728Z,4.07
2023-04-01T10:41:52.580Z,4.57
2023-04-01T10:47:24.712Z,6.47
2023-04-01T10:52:39.845Z,4.45
2023-04-01T10:57:41.619Z,2.35
2023-04-01T11:03:07.454Z,3.75
2023-04-01T11:08:31.256Z,2.78
2023-04-01T11:14:11.832Z,2.42
2023-04-01T11:19:26.621Z,1.33
2023-04-01T11:24:29.209Z,1.60
2023-04-01T11:29:33.741Z,1.50
2023-04-01T11:34:43.118Z,1.30
2023-04-01T11:40:24.653Z,1.20
2023-04-01T11:45:52.128Z,0.90
2023-04-01T11:51:39.610Z,1.00
2023-04-01T11:56:50.435Z,0.90
2023-04-01T12:02:09.491Z,1.15
2023-04-01T12:07:30.116Z,1.27
2023-04-01T12:13:00.162Z,1.23
2023-04-01T12:18:18.485Z,0.90
2023-04-01T12:23:53.357Z,1.10
2023-04-01T12:29:33.077Z,1.00
2023-04-01T12:34:58.900Z,0.90
2023-04-01T12:40:27.284Z,1.00
2023-04-01T12:45:37.041Z,1.42
2023-04-01T12:50:44.415Z,1.50
2023-04-01T12:55:51.680Z,1.35
2023-04-01T13:01:05.554Z,1.55
2023-04-01T13:06:25.842Z,1.60
2023-04-01T13:11:51.454Z,1.20
2023-04-01T13:17:01.437Z,0.90
2023-04-01T13:22:15.998Z,0.73
2023-04-01T13:27:34.272Z,0.70
2023-04-01T13:32:51.149Z,1.08
2023-04-01T13:38:05.755Z,0.93
2023-04-01T13:43:20.573Z,0.75
2023-04-01T13:48:48.970Z,0.90
2023-04-01T13:54:11.094Z,1.02
2023-04-01T13:59:28.303Z,0.80
2023-04-01T14:04:48.609Z,0.55
2023-04-01T14:10:05.824Z,0.50
2023-04-01T14:15:22.646Z,0.80
2023-04-01T14:20:52.860Z,0.85
2023-04-01T14:26:19.546Z,0.88
2023-04-01T14:31:24.400Z,2.10
2023-04-01T14:36:32.118Z,2.40
2023-04-01T14:42:08.732Z,3.00
2023-04-01T14:47:44.381Z,2.90
2023-04-01T14:53:18.033Z,3.03
2023-04-01T14:58:27.294Z,2.75
2023-04-01T15:04:08.530Z,2.55
2023-04-01T15:09:19.248Z,2.70
2023-04-01T15:19:40.717Z,2.08
2023-04-01T15:24:49.485Z,1.40
2023-04-01T15:30:05.766Z,1.38
2023-04-01T15:35:25.082Z,1.30
2023-04-01T15:40:52.708Z,1.33
2023-04-01T15:46:20.021Z,1.00
2023-04-01T15:51:47.275Z,1.38
2023-04-01T15:57:07.560Z,1.27
2023-04-01T16:02:35.419Z,1.40
2023-04-01T16:07:56.034Z,1.65
2023-04-01T16:13:34.690Z,1.10
2023-04-01T16:18:44.193Z,1.73
2023-04-01T16:24:15.005Z,1.48
2023-04-01T16:34:25.716Z,1.92
2023-04-01T16:39:49.368Z,1.80
2023-04-01T16:45:24.552Z,1.30
2023-04-01T16:50:47.768Z,1.40
2023-04-01T16:56:01.677Z,2.00
2023-04-01T17:01:14.083Z,2.10
2023-04-01T17:06:48.152Z,1.95
2023-04-01T17:12:02.421Z,2.13
2023-04-01T17:17:44.064Z,2.83
2023-04-01T17:23:03.046Z,2.50
2023-04-01T17:28:25.837Z,2.72
2023-04-01T17:33:48.790Z,3.03
2023-04-01T17:39:15.318Z,3.15
2023-04-01T17:44:54.820Z,3.30
2023-04-01T17:50:22.457Z,2.97
2023-04-01T17:55:48.619Z,3.35
2023-04-01T18:01:43.400Z,3.22
2023-04-01T18:07:00.252Z,2.90
2023-04-01T18:12:13.793Z,3.78
2023-04-01T18:17:20.766Z,3.55
2023-04-01T18:23:03.699Z,3.47
2023-04-01T18:28:33.963Z,3.70
2023-04-01T18:33:50.188Z,3.60
2023-04-01T18:39:02.926Z,4.53
2023-04-01T18:44:21.172Z,4.60
2023-04-01T18:50:14.786Z,4.55
2023-04-01T18:55:26.457Z,4.40
2023-04-01T19:00:44.625Z,4.47
2023-04-01T19:05:50.875Z,4.22
2023-04-01T19:11:11.728Z,4.90
2023-04-01T19:16:22.607Z,4.82
2023-04-01T19:26:38.910Z,5.22
2023-04-01T19:31:41.142Z,4.93
2023-04-01T19:37:31.676Z,5.05
2023-04-01T19:42:57.433Z,5.00
2023-04-01T19:48:14.010Z,4.93
2023-04-01T19:53:55.643Z,5.40
2023-04-01T19:59:10.933Z,5.50
2023-04-01T20:04:40.513Z,5.05
2023-04-01T20:09:54.454Z,5.22
2023-04-01T20:14:59.685Z,5.47
2023-04-01T20:20:12.103Z,4.85
2023-04-01T20:25:27.439Z,5.88
2023-04-01T20:30:50.325Z,5.55
2023-04-01T20:36:16.212Z,6.63
2023-04-01T20:41:27.578Z,7.43
2023-04-01T20:46:47.071Z,8.02
2023-04-01T20:52:08.421Z,8.27
2023-04-01T20:57:19.162Z,7.55
2023-04-01T21:07:28.446Z,10.55
2023-04-01T21:12:43.718Z,12.48
2023-04-01T21:18:18.996Z,12.48
2023-04-01T21:23:35.630Z,12.60
2023-04-01T21:28:52.894Z,11.98
2023-04-01T21:34:32.259Z,12.75
2023-04-01T21:39:53.646Z,10.57
2023-04-01T21:44:59.358Z,8.93
2023-04-01T21:50:24.819Z,8.35
2023-04-01T21:55:48.248Z,8.30
2023-04-01T22:01:32.214Z,8.57
2023-04-01T22:06:59.160Z,8.68
2023-04-01T22:12:19.234Z,10.75
2023-04-01T22:17:39.269Z,11.67
2023-04-01T22:23:01.636Z,12.37
2023-04-01T22:28:13.533Z,12.50
2023-04-01T22:33:50.680Z,12.70
2023-04-01T22:39:11.132Z,10.90
2023-04-01T22:44:32.389Z,11.00
2023-04-01T22:49:42.793Z,10.45
2023-04-01T22:54:53.935Z,12.38
2023-04-01T23:00:20.341Z,12.10
2023-04-01T23:05:23.807Z,13.85
2023-04-01T23:10:48.489Z,13.27
2023-04-01T23:15:53.808Z,12.18
2023-04-01T23:21:16.704Z,12.30
2023-04-01T23:26:41.002Z,11.60
2023-04-01T23:31:44.462Z,12.02
2023-04-01T23:36:53.876Z,11.10
2023-04-01T23:42:00.620Z,10.25
2023-04-01T23:47:04.407Z,8.98
2023-04-01T23:52:18.064Z,8.32
2023-04-01T23:57:25.191Z,7.80
